sensor_id;sensor_type;location;lat;lon;timestamp;temperature;humidity
26037;DHT22;13810;48.376;10.944;2023-07-29T00:00:30;16.30;99.90
26037;DHT22;13810;48.376;10.944;2023-07-29T00:01:01;16.30;99.90
26037;DHT22;13810;48.376;10.944;2023-07-29T00:01:33;16.30;99.90
26037;DHT22;13810;48.376;10.944;2023-07-29T00:02:04;16.30;99.90
26037;DHT22;13810;48.376;10.944;2023-07-29T00:02:35;16.30;99.90
26037;DHT22;13810;48.376;10.944;2023-07-29T00:03:05;16.30;99.90
26037;DHT22;13810;48.376;10.944;2023-07-29T00:03:36;16.30;99.90
26037;DHT22;13810;48.376;10.944;2023-07-29T00:04:08;16.30;99.90
26037;DHT22;13810;48.376;10.944;2023-07-29T00:04:39;16.30;99.90
26037;DHT22;13810;48.376;10.944;2023-07-29T00:05:10;16.30;99.90
26037;DHT22;13810;48.376;10.944;2023-07-29T00:05:41;16.30;99.90
26037;DHT22;13810;48.376;10.944;2023-07-29T00:06:11;16.30;99.90
26037;DHT22;13810;48.376;10.944;2023-07-29T00:06:42;16.20;99.90
26037;DHT22;13810;48.376;10.944;2023-07-29T00:07:13;16.20;99.90
26037;DHT22;13810;48.376;10.944;2023-07-29T00:07:43;16.20;99.90
26037;DHT22;13810;48.376;10.944;2023-07-29T00:08:14;16.20;99.90
26037;DHT22;13810;48.376;10.944;2023-07-29T00:08:45;16.20;99.90
26037;DHT22;13810;48.376;10.944;2023-07-29T00:09:15;16.20;99.90
26037;DHT22;13810;48.376;10.944;2023-07-29T00:09:46;16.20;99.90
26037;DHT22;13810;48.376;10.944;2023-07-29T00:10:17;16.20;99.90
26037;DHT22;13810;48.376;10.944;2023-07-29T00:10:47;16.20;99.90
26037;DHT22;13810;48.376;10.944;2023-07-29T00:11:18;16.20;99.90
26037;DHT22;13810;48.376;10.944;2023-07-29T00:11:48;16.20;99.90
26037;DHT22;13810;48.376;10.944;2023-07-29T00:12:19;16.20;99.90
26037;DHT22;13810;48.376;10.944;2023-07-29T00:12:50;16.20;99.90
26037;DHT22;13810;48.376;10.944;2023-07-29T00:13:20;16.20;99.90
26037;DHT22;13810;48.376;10.944;2023-07-29T00:13:51;16.20;99.90
26037;DHT22;13810;48.376;10.944;2023-07-29T00:14:23;16.20;99.90
26037;DHT22;13810;48.376;10.944;2023-07-29T00:14:53;16.20;99.90
26037;DHT22;13810;48.376;10.944;2023-07-29T00:15:24;16.20;99.90
26037;DHT22;13810;48.376;10.944;2023-07-29T00:15:55;16.20;99.90
26037;DHT22;13810;48.376;10.944;2023-07-29T00:16:28;16.20;99.90
26037;DHT22;13810;48.376;10.944;2023-07-29T00:16:59;16.20;99.90
26037;DHT22;13810;48.376;10.944;2023-07-29T00:17:30;16.10;99.90
26037;DHT22;13810;48.376;10.944;2023-07-29T00:18:00;16.10;99.90
26037;DHT22;13810;48.376;10.944;2023-07-29T00:18:31;16.10;99.90
26037;DHT22;13810;48.376;10.944;2023-07-29T00:19:03;16.10;99.90
26037;DHT22;13810;48.376;10.944;2023-07-29T00:19:34;16.10;99.90
26037;DHT22;13810;48.376;10.944;2023-07-29T00:20:06;16.10;99.90
26037;DHT22;13810;48.376;10.944;2023-07-29T00:20:37;16.10;99.90
26037;DHT22;13810;48.376;10.944;2023-07-29T00:21:07;16.10;99.90
26037;DHT22;13810;48.376;10.944;2023-07-29T00:21:38;16.10;99.90
26037;DHT22;13810;48.376;10.944;2023-07-29T00:22:09;16.10;99.90
26037;DHT22;13810;48.376;10.944;2023-07-29T00:22:39;16.10;99.90
26037;DHT22;13810;48.376;10.944;2023-07-29T00:23:10;16.10;99.90
26037;DHT22;13810;48.376;10.944;2023-07-29T00:23:41;16.10;99.90
26037;DHT22;13810;48.376;10.944;2023-07-29T00:24:11;16.10;99.90
26037;DHT22;13810;48.376;10.944;2023-07-29T00:24:42;16.10;99.90
26037;DHT22;13810;48.376;10.944;2023-07-29T00:25:13;16.10;99.90
26037;DHT22;13810;48.376;10.944;2023-07-29T00:25:43;16.10;99.90
26037;DHT22;13810;48.376;10.944;2023-07-29T00:26:14;16.10;99.90
26037;DHT22;13810;48.376;10.944;2023-07-29T00:26:45;16.10;99.90
26037;DHT22;13810;48.376;10.944;2023-07-29T00:27:15;16.10;99.90
26037;DHT22;13810;48.376;10.944;2023-07-29T00:27:46;16.10;99.90
26037;DHT22;13810;48.376;10.944;2023-07-29T00:28:16;16.10;99.90
26037;DHT22;13810;48.376;10.944;2023-07-29T00:28:47;16.00;99.90
26037;DHT22;13810;48.376;10.944;2023-07-29T00:29:18;16.00;99.90
26037;DHT22;13810;48.376;10.944;2023-07-29T00:29:48;16.00;99.90
26037;DHT22;13810;48.376;10.944;2023-07-29T00:30:19;16.00;99.90
26037;DHT22;13810;48.376;10.944;2023-07-29T00:30:50;16.00;99.90
26037;DHT22;13810;48.376;10.944;2023-07-29T00:31:20;16.00;99.90
26037;DHT22;13810;48.376;10.944;2023-07-29T00:31:51;16.00;99.90
26037;DHT22;13810;48.376;10.944;2023-07-29T00:32:21;16.00;99.90
26037;DHT22;13810;48.376;10.944;2023-07-29T00:32:52;16.00;99.90
26037;DHT22;13810;48.376;10.944;2023-07-29T00:33:23;16.00;99.90
26037;DHT22;13810;48.376;10.944;2023-07-29T00:33:53;16.00;99.90
26037;DHT22;13810;48.376;10.944;2023-07-29T00:34:24;16.00;99.90
26037;DHT22;13810;48.376;10.944;2023-07-29T00:34:55;16.00;99.90
26037;DHT22;13810;48.376;10.944;2023-07-29T00:35:25;16.00;99.90
26037;DHT22;13810;48.376;10.944;2023-07-29T00:35:57;16.00;99.90
26037;DHT22;13810;48.376;10.944;2023-07-29T00:36:27;15.90;99.90
26037;DHT22;13810;48.376;10.944;2023-07-29T00:36:58;15.90;99.90
26037;DHT22;13810;48.376;10.944;2023-07-29T00:37:30;15.90;99.90
26037;DHT22;13810;48.376;10.944;2023-07-29T00:38:00;16.00;99.90
26037;DHT22;13810;48.376;10.944;2023-07-29T00:38:31;15.90;99.90
26037;DHT22;13810;48.376;10.944;2023-07-29T00:39:02;15.90;99.90
26037;DHT22;13810;48.376;10.944;2023-07-29T00:39:33;15.90;99.90
26037;DHT22;13810;48.376;10.944;2023-07-29T00:40:12;16.00;99.90
26037;DHT22;13810;48.376;10.944;2023-07-29T00:40:44;15.90;99.90
26037;DHT22;13810;48.376;10.944;2023-07-29T00:41:15;15.90;99.90
26037;DHT22;13810;48.376;10.944;2023-07-29T00:41:46;15.90;99.90
26037;DHT22;13810;48.376;10.944;2023-07-29T00:42:17;15.90;99.90
26037;DHT22;13810;48.376;10.944;2023-07-29T00:42:48;15.90;99.90
26037;DHT22;13810;48.376;10.944;2023-07-29T00:43:19;15.90;99.90
26037;DHT22;13810;48.376;10.944;2023-07-29T00:43:50;15.90;99.90
26037;DHT22;13810;48.376;10.944;2023-07-29T00:44:21;15.80;99.90
26037;DHT22;13810;48.376;10.944;2023-07-29T00:44:51;15.90;99.90
26037;DHT22;13810;48.376;10.944;2023-07-29T00:45:23;15.90;99.90
26037;DHT22;13810;48.376;10.944;2023-07-29T00:45:55;15.80;99.90
26037;DHT22;13810;48.376;10.944;2023-07-29T00:46:28;15.90;99.90
26037;DHT22;13810;48.376;10.944;2023-07-29T00:47:00;15.80;99.90
26037;DHT22;13810;48.376;10.944;2023-07-29T00:47:33;15.80;99.90
26037;DHT22;13810;48.376;10.944;2023-07-29T00:48:03;15.80;99.90
26037;DHT22;13810;48.376;10.944;2023-07-29T00:48:35;15.80;99.90
26037;DHT22;13810;48.376;10.944;2023-07-29T00:49:06;15.80;99.90
26037;DHT22;13810;48.376;10.944;2023-07-29T00:49:36;15.80;99.90
26037;DHT22;13810;48.376;10.944;2023-07-29T00:50:09;15.80;99.90
26037;DHT22;13810;48.376;10.944;2023-07-29T00:50:41;15.80;99.90
26037;DHT22;13810;48.376;10.944;2023-07-29T00:51:12;15.80;99.90
26037;DHT22;13810;48.376;10.944;2023-07-29T00:51:43;15.80;99.90
26037;DHT22;13810;48.376;10.944;2023-07-29T00:52:13;15.70;99.90
26037;DHT22;13810;48.376;10.944;2023-07-29T00:52:44;15.80;99.90
26037;DHT22;13810;48.376;10.944;2023-07-29T00:53:15;15.70;99.90
26037;DHT22;13810;48.376;10.944;2023-07-29T00:53:46;15.70;99.90
26037;DHT22;13810;48.376;10.944;2023-07-29T00:54:16;15.70;99.90
26037;DHT22;13810;48.376;10.944;2023-07-29T00:54:47;15.70;99.90
26037;DHT22;13810;48.376;10.944;2023-07-29T00:55:18;15.70;99.90
26037;DHT22;13810;48.376;10.944;2023-07-29T00:55:49;15.70;99.90
26037;DHT22;13810;48.376;10.944;2023-07-29T00:56:19;15.70;99.90
26037;DHT22;13810;48.376;10.944;2023-07-29T00:56:50;15.70;99.90
26037;DHT22;13810;48.376;10.944;2023-07-29T00:57:21;15.70;99.90
26037;DHT22;13810;48.376;10.944;2023-07-29T00:57:53;15.60;99.90
26037;DHT22;13810;48.376;10.944;2023-07-29T00:58:24;15.60;99.90
26037;DHT22;13810;48.376;10.944;2023-07-29T00:58:55;15.60;99.90
26037;DHT22;13810;48.376;10.944;2023-07-29T00:59:30;15.60;99.90
26037;DHT22;13810;48.376;10.944;2023-07-29T01:00:02;15.60;99.90
26037;DHT22;13810;48.376;10.944;2023-07-29T01:00:34;15.60;99.90
26037;DHT22;13810;48.376;10.944;2023-07-29T01:01:06;15.60;99.90
26037;DHT22;13810;48.376;10.944;2023-07-29T01:01:36;15.60;99.90
26037;DHT22;13810;48.376;10.944;2023-07-29T01:02:08;15.50;99.90
26037;DHT22;13810;48.376;10.944;2023-07-29T01:02:39;15.50;99.90
26037;DHT22;13810;48.376;10.944;2023-07-29T01:03:09;15.50;99.90
26037;DHT22;13810;48.376;10.944;2023-07-29T01:03:40;15.50;99.90
26037;DHT22;13810;48.376;10.944;2023-07-29T01:04:11;15.50;99.90
26037;DHT22;13810;48.376;10.944;2023-07-29T01:04:42;15.50;99.90
26037;DHT22;13810;48.376;10.944;2023-07-29T01:05:14;15.50;99.90
26037;DHT22;13810;48.376;10.944;2023-07-29T01:08:21;15.40;99.90
26037;DHT22;13810;48.376;10.944;2023-07-29T01:09:05;15.40;99.90
26037;DHT22;13810;48.376;10.944;2023-07-29T01:09:47;15.40;99.90
26037;DHT22;13810;48.376;10.944;2023-07-29T01:10:35;15.40;99.90
26037;DHT22;13810;48.376;10.944;2023-07-29T01:11:23;15.40;99.90
26037;DHT22;13810;48.376;10.944;2023-07-29T01:12:02;15.30;99.90
26037;DHT22;13810;48.376;10.944;2023-07-29T01:12:42;15.30;99.90
26037;DHT22;13810;48.376;10.944;2023-07-29T01:13:31;15.30;99.90
26037;DHT22;13810;48.376;10.944;2023-07-29T01:15:59;15.30;99.90
26037;DHT22;13810;48.376;10.944;2023-07-29T01:16:39;15.30;99.90
26037;DHT22;13810;48.376;10.944;2023-07-29T01:17:15;15.30;99.90
26037;DHT22;13810;48.376;10.944;2023-07-29T01:17:54;15.30;99.90
26037;DHT22;13810;48.376;10.944;2023-07-29T01:18:32;15.20;99.90
26037;DHT22;13810;48.376;10.944;2023-07-29T01:19:06;15.20;99.90
26037;DHT22;13810;48.376;10.944;2023-07-29T01:20:01;15.30;99.90
26037;DHT22;13810;48.376;10.944;2023-07-29T01:20:40;15.20;99.90
26037;DHT22;13810;48.376;10.944;2023-07-29T01:21:11;15.20;99.90
26037;DHT22;13810;48.376;10.944;2023-07-29T01:21:43;15.20;99.90
26037;DHT22;13810;48.376;10.944;2023-07-29T01:22:14;15.20;99.90
26037;DHT22;13810;48.376;10.944;2023-07-29T01:22:46;15.20;99.90
26037;DHT22;13810;48.376;10.944;2023-07-29T01:23:24;15.20;99.90
26037;DHT22;13810;48.376;10.944;2023-07-29T01:23:58;15.20;99.90
26037;DHT22;13810;48.376;10.944;2023-07-29T01:24:29;15.20;99.90
26037;DHT22;13810;48.376;10.944;2023-07-29T01:25:00;15.20;99.90
26037;DHT22;13810;48.376;10.944;2023-07-29T01:25:31;15.20;99.90
26037;DHT22;13810;48.376;10.944;2023-07-29T01:26:02;15.20;99.90
26037;DHT22;13810;48.376;10.944;2023-07-29T01:26:33;15.20;99.90
26037;DHT22;13810;48.376;10.944;2023-07-29T01:27:04;15.20;99.90
26037;DHT22;13810;48.376;10.944;2023-07-29T01:27:35;15.20;99.90
26037;DHT22;13810;48.376;10.944;2023-07-29T01:28:06;15.20;99.90
26037;DHT22;13810;48.376;10.944;2023-07-29T01:28:37;15.20;99.90
26037;DHT22;13810;48.376;10.944;2023-07-29T01:29:08;15.20;99.90
26037;DHT22;13810;48.376;10.944;2023-07-29T01:29:38;15.20;99.90
26037;DHT22;13810;48.376;10.944;2023-07-29T01:30:09;15.20;99.90
26037;DHT22;13810;48.376;10.944;2023-07-29T01:30:40;15.20;99.90
26037;DHT22;13810;48.376;10.944;2023-07-29T01:31:32;15.20;99.90
26037;DHT22;13810;48.376;10.944;2023-07-29T01:32:10;15.20;99.90
26037;DHT22;13810;48.376;10.944;2023-07-29T01:32:56;15.20;99.90
26037;DHT22;13810;48.376;10.944;2023-07-29T01:33:35;15.20;99.90
26037;DHT22;13810;48.376;10.944;2023-07-29T01:34:17;15.10;99.90
26037;DHT22;13810;48.376;10.944;2023-07-29T01:35:14;15.10;99.90
26037;DHT22;13810;48.376;10.944;2023-07-29T01:36:01;15.10;99.90
26037;DHT22;13810;48.376;10.944;2023-07-29T01:36:33;15.10;99.90
26037;DHT22;13810;48.376;10.944;2023-07-29T01:37:07;15.10;99.90
26037;DHT22;13810;48.376;10.944;2023-07-29T01:37:40;15.10;99.90
26037;DHT22;13810;48.376;10.944;2023-07-29T01:38:16;15.10;99.90
26037;DHT22;13810;48.376;10.944;2023-07-29T01:38:48;15.00;99.90
26037;DHT22;13810;48.376;10.944;2023-07-29T01:39:21;15.00;99.90
26037;DHT22;13810;48.376;10.944;2023-07-29T01:39:55;15.10;99.90
26037;DHT22;13810;48.376;10.944;2023-07-29T01:40:28;15.10;99.90
26037;DHT22;13810;48.376;10.944;2023-07-29T01:41:01;15.00;99.90
26037;DHT22;13810;48.376;10.944;2023-07-29T01:41:32;15.10;99.90
26037;DHT22;13810;48.376;10.944;2023-07-29T01:42:03;15.10;99.90
26037;DHT22;13810;48.376;10.944;2023-07-29T01:42:34;15.00;99.90
26037;DHT22;13810;48.376;10.944;2023-07-29T01:43:05;15.00;99.90
26037;DHT22;13810;48.376;10.944;2023-07-29T01:43:37;15.00;99.90
26037;DHT22;13810;48.376;10.944;2023-07-29T01:44:15;15.10;99.90
26037;DHT22;13810;48.376;10.944;2023-07-29T01:44:46;15.00;99.90
26037;DHT22;13810;48.376;10.944;2023-07-29T01:45:17;15.00;99.90
26037;DHT22;13810;48.376;10.944;2023-07-29T01:45:47;15.00;99.90
26037;DHT22;13810;48.376;10.944;2023-07-29T01:46:18;15.00;99.90
26037;DHT22;13810;48.376;10.944;2023-07-29T01:46:49;15.00;99.90
26037;DHT22;13810;48.376;10.944;2023-07-29T01:47:20;15.00;99.90
26037;DHT22;13810;48.376;10.944;2023-07-29T01:47:52;15.00;99.90
26037;DHT22;13810;48.376;10.944;2023-07-29T01:48:23;15.00;99.90
26037;DHT22;13810;48.376;10.944;2023-07-29T01:48:54;15.00;99.90
26037;DHT22;13810;48.376;10.944;2023-07-29T01:49:25;15.00;99.90
26037;DHT22;13810;48.376;10.944;2023-07-29T01:49:55;14.90;99.90
26037;DHT22;13810;48.376;10.944;2023-07-29T01:50:26;15.00;99.90
26037;DHT22;13810;48.376;10.944;2023-07-29T01:50:57;14.90;99.90
26037;DHT22;13810;48.376;10.944;2023-07-29T01:51:27;15.00;99.90
26037;DHT22;13810;48.376;10.944;2023-07-29T01:51:58;15.00;99.90
26037;DHT22;13810;48.376;10.944;2023-07-29T01:52:29;15.00;99.90
26037;DHT22;13810;48.376;10.944;2023-07-29T01:52:59;15.00;99.90
26037;DHT22;13810;48.376;10.944;2023-07-29T01:53:30;15.00;99.90
26037;DHT22;13810;48.376;10.944;2023-07-29T01:54:01;15.00;99.90
26037;DHT22;13810;48.376;10.944;2023-07-29T01:54:32;15.00;99.90
26037;DHT22;13810;48.376;10.944;2023-07-29T01:55:03;15.00;99.90
26037;DHT22;13810;48.376;10.944;2023-07-29T01:55:33;15.00;99.90
26037;DHT22;13810;48.376;10.944;2023-07-29T01:56:04;15.00;99.90
26037;DHT22;13810;48.376;10.944;2023-07-29T01:56:35;15.00;99.90
26037;DHT22;13810;48.376;10.944;2023-07-29T01:57:05;15.00;99.90
26037;DHT22;13810;48.376;10.944;2023-07-29T01:57:36;15.00;99.90
26037;DHT22;13810;48.376;10.944;2023-07-29T01:58:07;15.00;99.90
26037;DHT22;13810;48.376;10.944;2023-07-29T01:58:37;15.00;99.90
26037;DHT22;13810;48.376;10.944;2023-07-29T01:59:08;15.00;99.90
26037;DHT22;13810;48.376;10.944;2023-07-29T01:59:39;15.00;99.90
26037;DHT22;13810;48.376;10.944;2023-07-29T02:00:11;15.00;99.90
26037;DHT22;13810;48.376;10.944;2023-07-29T02:00:41;15.00;99.90
26037;DHT22;13810;48.376;10.944;2023-07-29T02:01:12;15.00;99.90
26037;DHT22;13810;48.376;10.944;2023-07-29T02:01:43;15.00;99.90
26037;DHT22;13810;48.376;10.944;2023-07-29T02:02:14;15.00;99.90
26037;DHT22;13810;48.376;10.944;2023-07-29T02:02:45;15.00;99.90
26037;DHT22;13810;48.376;10.944;2023-07-29T02:03:15;15.00;99.90
26037;DHT22;13810;48.376;10.944;2023-07-29T02:03:46;15.00;99.90
26037;DHT22;13810;48.376;10.944;2023-07-29T02:04:17;15.00;99.90
26037;DHT22;13810;48.376;10.944;2023-07-29T02:04:47;15.00;99.90
26037;DHT22;13810;48.376;10.944;2023-07-29T02:05:21;15.00;99.90
26037;DHT22;13810;48.376;10.944;2023-07-29T02:05:52;14.90;99.90
26037;DHT22;13810;48.376;10.944;2023-07-29T02:06:23;14.90;99.90
26037;DHT22;13810;48.376;10.944;2023-07-29T02:06:53;14.90;99.90
26037;DHT22;13810;48.376;10.944;2023-07-29T02:07:25;14.90;99.90
26037;DHT22;13810;48.376;10.944;2023-07-29T02:07:57;14.90;99.90
26037;DHT22;13810;48.376;10.944;2023-07-29T02:08:27;14.90;99.90
26037;DHT22;13810;48.376;10.944;2023-07-29T02:08:58;14.90;99.90
26037;DHT22;13810;48.376;10.944;2023-07-29T02:09:29;14.80;99.90
26037;DHT22;13810;48.376;10.944;2023-07-29T02:10:01;14.80;99.90
26037;DHT22;13810;48.376;10.944;2023-07-29T02:10:32;14.90;99.90
26037;DHT22;13810;48.376;10.944;2023-07-29T02:11:02;14.90;99.90
26037;DHT22;13810;48.376;10.944;2023-07-29T02:11:33;14.80;99.90
26037;DHT22;13810;48.376;10.944;2023-07-29T02:12:04;14.80;99.90
26037;DHT22;13810;48.376;10.944;2023-07-29T02:12:34;14.80;99.90
26037;DHT22;13810;48.376;10.944;2023-07-29T02:13:05;14.80;99.90
26037;DHT22;13810;48.376;10.944;2023-07-29T02:13:36;14.80;99.90
26037;DHT22;13810;48.376;10.944;2023-07-29T02:14:06;14.80;99.90
26037;DHT22;13810;48.376;10.944;2023-07-29T02:14:37;14.80;99.90
26037;DHT22;13810;48.376;10.944;2023-07-29T02:15:08;14.80;99.90
26037;DHT22;13810;48.376;10.944;2023-07-29T02:15:40;14.80;99.90
26037;DHT22;13810;48.376;10.944;2023-07-29T02:16:10;14.80;99.90
26037;DHT22;13810;48.376;10.944;2023-07-29T02:16:41;14.80;99.90
26037;DHT22;13810;48.376;10.944;2023-07-29T02:17:12;14.70;99.90
26037;DHT22;13810;48.376;10.944;2023-07-29T02:17:42;14.70;99.90
26037;DHT22;13810;48.376;10.944;2023-07-29T02:18:13;14.70;99.90
26037;DHT22;13810;48.376;10.944;2023-07-29T02:18:44;14.60;99.90
26037;DHT22;13810;48.376;10.944;2023-07-29T02:19:14;14.60;99.90
26037;DHT22;13810;48.376;10.944;2023-07-29T02:19:45;14.60;99.90
26037;DHT22;13810;48.376;10.944;2023-07-29T02:20:16;14.60;99.90
26037;DHT22;13810;48.376;10.944;2023-07-29T02:20:46;14.50;99.90
26037;DHT22;13810;48.376;10.944;2023-07-29T02:21:19;14.50;99.90
26037;DHT22;13810;48.376;10.944;2023-07-29T02:21:50;14.50;99.90
26037;DHT22;13810;48.376;10.944;2023-07-29T02:22:21;14.50;99.90
26037;DHT22;13810;48.376;10.944;2023-07-29T02:22:52;14.50;99.90
26037;DHT22;13810;48.376;10.944;2023-07-29T02:23:22;14.50;99.90
26037;DHT22;13810;48.376;10.944;2023-07-29T02:23:53;14.50;99.90
26037;DHT22;13810;48.376;10.944;2023-07-29T02:24:24;14.50;99.90
26037;DHT22;13810;48.376;10.944;2023-07-29T02:24:54;14.50;99.90
26037;DHT22;13810;48.376;10.944;2023-07-29T02:25:25;14.60;99.90
26037;DHT22;13810;48.376;10.944;2023-07-29T02:25:56;14.60;99.90
26037;DHT22;13810;48.376;10.944;2023-07-29T02:26:26;14.60;99.90
26037;DHT22;13810;48.376;10.944;2023-07-29T02:26:57;14.60;99.90
26037;DHT22;13810;48.376;10.944;2023-07-29T02:27:28;14.60;99.90
26037;DHT22;13810;48.376;10.944;2023-07-29T02:27:58;14.60;99.90
26037;DHT22;13810;48.376;10.944;2023-07-29T02:28:29;14.70;99.90
26037;DHT22;13810;48.376;10.944;2023-07-29T02:28:59;14.60;99.90
26037;DHT22;13810;48.376;10.944;2023-07-29T02:29:30;14.70;99.90
26037;DHT22;13810;48.376;10.944;2023-07-29T02:30:03;14.70;99.90
26037;DHT22;13810;48.376;10.944;2023-07-29T02:30:34;14.70;99.90
26037;DHT22;13810;48.376;10.944;2023-07-29T02:31:24;14.70;99.90
26037;DHT22;13810;48.376;10.944;2023-07-29T02:31:55;14.70;99.90
26037;DHT22;13810;48.376;10.944;2023-07-29T02:32:26;14.80;99.90
26037;DHT22;13810;48.376;10.944;2023-07-29T02:32:56;14.80;99.90
26037;DHT22;13810;48.376;10.944;2023-07-29T02:33:27;14.80;99.90
26037;DHT22;13810;48.376;10.944;2023-07-29T02:33:57;14.80;99.90
26037;DHT22;13810;48.376;10.944;2023-07-29T02:34:29;14.80;99.90
26037;DHT22;13810;48.376;10.944;2023-07-29T02:34:59;14.80;99.90
26037;DHT22;13810;48.376;10.944;2023-07-29T02:35:30;14.80;99.90
26037;DHT22;13810;48.376;10.944;2023-07-29T02:36:01;14.80;99.90
26037;DHT22;13810;48.376;10.944;2023-07-29T02:36:31;14.80;99.90
26037;DHT22;13810;48.376;10.944;2023-07-29T02:37:02;14.80;99.90
26037;DHT22;13810;48.376;10.944;2023-07-29T02:37:33;14.90;99.90
26037;DHT22;13810;48.376;10.944;2023-07-29T02:38:03;14.90;99.90
26037;DHT22;13810;48.376;10.944;2023-07-29T02:38:34;14.90;99.90
26037;DHT22;13810;48.376;10.944;2023-07-29T02:39:05;14.90;99.90
26037;DHT22;13810;48.376;10.944;2023-07-29T02:39:37;14.90;99.90
26037;DHT22;13810;48.376;10.944;2023-07-29T02:40:08;14.90;99.90
26037;DHT22;13810;48.376;10.944;2023-07-29T02:40:38;14.90;99.90
26037;DHT22;13810;48.376;10.944;2023-07-29T02:41:10;14.90;99.90
26037;DHT22;13810;48.376;10.944;2023-07-29T02:41:42;14.90;99.90
26037;DHT22;13810;48.376;10.944;2023-07-29T02:42:13;14.90;99.90
26037;DHT22;13810;48.376;10.944;2023-07-29T02:42:43;14.90;99.90
26037;DHT22;13810;48.376;10.944;2023-07-29T02:43:14;14.90;99.90
26037;DHT22;13810;48.376;10.944;2023-07-29T02:43:48;14.90;99.90
26037;DHT22;13810;48.376;10.944;2023-07-29T02:44:19;14.90;99.90
26037;DHT22;13810;48.376;10.944;2023-07-29T02:44:50;14.90;99.90
26037;DHT22;13810;48.376;10.944;2023-07-29T02:45:21;14.90;99.90
26037;DHT22;13810;48.376;10.944;2023-07-29T02:45:51;14.90;99.90
26037;DHT22;13810;48.376;10.944;2023-07-29T02:46:22;14.90;99.90
26037;DHT22;13810;48.376;10.944;2023-07-29T02:46:53;14.90;99.90
26037;DHT22;13810;48.376;10.944;2023-07-29T02:47:26;14.90;99.90
26037;DHT22;13810;48.376;10.944;2023-07-29T02:47:56;14.90;99.90
26037;DHT22;13810;48.376;10.944;2023-07-29T02:48:27;14.90;99.90
26037;DHT22;13810;48.376;10.944;2023-07-29T02:48:58;14.90;99.90
26037;DHT22;13810;48.376;10.944;2023-07-29T02:49:29;14.90;99.90
26037;DHT22;13810;48.376;10.944;2023-07-29T02:50:00;14.90;99.90
26037;DHT22;13810;48.376;10.944;2023-07-29T02:50:30;14.90;99.90
26037;DHT22;13810;48.376;10.944;2023-07-29T02:51:01;14.90;99.90
26037;DHT22;13810;48.376;10.944;2023-07-29T02:51:32;14.90;99.90
26037;DHT22;13810;48.376;10.944;2023-07-29T02:52:03;14.90;99.90
26037;DHT22;13810;48.376;10.944;2023-07-29T02:52:34;14.90;99.90
26037;DHT22;13810;48.376;10.944;2023-07-29T02:53:04;14.90;99.90
26037;DHT22;13810;48.376;10.944;2023-07-29T02:53:35;14.90;99.90
26037;DHT22;13810;48.376;10.944;2023-07-29T02:54:08;14.90;99.90
26037;DHT22;13810;48.376;10.944;2023-07-29T02:54:39;14.90;99.90
26037;DHT22;13810;48.376;10.944;2023-07-29T02:55:10;14.90;99.90
26037;DHT22;13810;48.376;10.944;2023-07-29T02:55:41;14.90;99.90
26037;DHT22;13810;48.376;10.944;2023-07-29T02:56:11;14.90;99.90
26037;DHT22;13810;48.376;10.944;2023-07-29T02:56:42;14.90;99.90
26037;DHT22;13810;48.376;10.944;2023-07-29T02:57:13;14.90;99.90
26037;DHT22;13810;48.376;10.944;2023-07-29T02:57:44;14.90;99.90
26037;DHT22;13810;48.376;10.944;2023-07-29T02:58:14;14.90;99.90
26037;DHT22;13810;48.376;10.944;2023-07-29T02:58:45;14.90;99.90
26037;DHT22;13810;48.376;10.944;2023-07-29T02:59:16;14.90;99.90
26037;DHT22;13810;48.376;10.944;2023-07-29T02:59:46;14.90;99.90
26037;DHT22;13810;48.376;10.944;2023-07-29T03:00:17;14.90;99.90
26037;DHT22;13810;48.376;10.944;2023-07-29T03:00:48;14.90;99.90
26037;DHT22;13810;48.376;10.944;2023-07-29T03:01:20;14.90;99.90
26037;DHT22;13810;48.376;10.944;2023-07-29T03:01:50;15.00;99.90
26037;DHT22;13810;48.376;10.944;2023-07-29T03:02:21;15.00;99.90
26037;DHT22;13810;48.376;10.944;2023-07-29T03:02:52;14.90;99.90
26037;DHT22;13810;48.376;10.944;2023-07-29T03:03:22;15.00;99.90
26037;DHT22;13810;48.376;10.944;2023-07-29T03:03:53;14.90;99.90
26037;DHT22;13810;48.376;10.944;2023-07-29T03:04:24;15.00;99.90
26037;DHT22;13810;48.376;10.944;2023-07-29T03:04:54;15.00;99.90
26037;DHT22;13810;48.376;10.944;2023-07-29T03:05:27;15.00;99.90
26037;DHT22;13810;48.376;10.944;2023-07-29T03:06:08;15.00;99.90
26037;DHT22;13810;48.376;10.944;2023-07-29T03:06:39;15.00;99.90
26037;DHT22;13810;48.376;10.944;2023-07-29T03:07:10;15.00;99.90
26037;DHT22;13810;48.376;10.944;2023-07-29T03:07:40;15.00;99.90
26037;DHT22;13810;48.376;10.944;2023-07-29T03:08:11;15.00;99.90
26037;DHT22;13810;48.376;10.944;2023-07-29T03:08:43;15.00;99.90
26037;DHT22;13810;48.376;10.944;2023-07-29T03:09:14;15.00;99.90
26037;DHT22;13810;48.376;10.944;2023-07-29T03:09:45;15.00;99.90
26037;DHT22;13810;48.376;10.944;2023-07-29T03:10:15;15.00;99.90
26037;DHT22;13810;48.376;10.944;2023-07-29T03:10:46;15.00;99.90
26037;DHT22;13810;48.376;10.944;2023-07-29T03:11:17;15.00;99.90
26037;DHT22;13810;48.376;10.944;2023-07-29T03:11:47;15.00;99.90
26037;DHT22;13810;48.376;10.944;2023-07-29T03:12:18;15.00;99.90
26037;DHT22;13810;48.376;10.944;2023-07-29T03:12:49;15.00;99.90
26037;DHT22;13810;48.376;10.944;2023-07-29T03:13:19;15.00;99.90
26037;DHT22;13810;48.376;10.944;2023-07-29T03:13:50;15.00;99.90
26037;DHT22;13810;48.376;10.944;2023-07-29T03:14:21;15.00;99.90
26037;DHT22;13810;48.376;10.944;2023-07-29T03:14:52;15.00;99.90
26037;DHT22;13810;48.376;10.944;2023-07-29T03:15:26;15.00;99.90
26037;DHT22;13810;48.376;10.944;2023-07-29T03:16:14;15.00;99.90
26037;DHT22;13810;48.376;10.944;2023-07-29T03:16:45;15.00;99.90
26037;DHT22;13810;48.376;10.944;2023-07-29T03:17:16;15.00;99.90
26037;DHT22;13810;48.376;10.944;2023-07-29T03:17:46;15.00;99.90
26037;DHT22;13810;48.376;10.944;2023-07-29T03:18:17;15.00;99.90
26037;DHT22;13810;48.376;10.944;2023-07-29T03:18:49;15.00;99.90
26037;DHT22;13810;48.376;10.944;2023-07-29T03:19:19;15.00;99.90
26037;DHT22;13810;48.376;10.944;2023-07-29T03:19:50;15.00;99.90
26037;DHT22;13810;48.376;10.944;2023-07-29T03:20:21;15.00;99.90
26037;DHT22;13810;48.376;10.944;2023-07-29T03:20:51;15.00;99.90
26037;DHT22;13810;48.376;10.944;2023-07-29T03:21:22;15.00;99.90
26037;DHT22;13810;48.376;10.944;2023-07-29T03:21:52;15.00;99.90
26037;DHT22;13810;48.376;10.944;2023-07-29T03:22:23;15.00;99.90
26037;DHT22;13810;48.376;10.944;2023-07-29T03:22:54;15.00;99.90